Terminal Aerodrome Forecast
Issued by NWS

Home | Current Version | Previous Version | Text Only | Print | Product List | Glossary On
Versions: 1 2 3 4 5 6 7 8 9 10 11 12 13 14
322
FTUS44 KEPZ 301131
TAFLRU
TAF
KLRU 301131Z 3012/3112 13004KT P6SM SCT110
     FM301800 14008KT P6SM SCT080 SCT100 SCT250
     FM310600 18006KT P6SM FEW080 SCT120 BKN220=

USA.gov is the U.S. government's official web portal to all federal, state and local government web resources and services.